createdAt,value
2022-10-26T00:01:49.039Z,101182.22
2022-10-26T00:04:17.666Z,101185.70
2022-10-26T00:06:46.043Z,101187.52
2022-10-26T00:09:14.409Z,101188.07
2022-10-26T00:11:42.754Z,101190.38
2022-10-26T00:14:11.088Z,101189.34
2022-10-26T00:16:39.525Z,101191.19
2022-10-26T00:19:07.938Z,101192.77
2022-10-26T00:21:36.544Z,101194.55
2022-10-26T00:24:05.602Z,101191.03
2022-10-26T00:26:34.140Z,101188.52
2022-10-26T00:29:02.951Z,101188.14
2022-10-26T00:31:31.595Z,101186.23
2022-10-26T00:34:00.182Z,101188.85
2022-10-26T00:36:28.961Z,101187.23
2022-10-26T00:38:58.074Z,101192.02
2022-10-26T00:41:29.517Z,101196.75
2022-10-26T00:43:58.877Z,101196.31
2022-10-26T00:46:30.200Z,101201.23
2022-10-26T00:49:03.616Z,101197.42
2022-10-26T00:51:36.589Z,101200.59
2022-10-26T00:54:11.885Z,101199.91
2022-10-26T00:56:41.620Z,101199.96
2022-10-26T00:59:13.308Z,101202.30
2022-10-26T01:01:45.216Z,101198.59
2022-10-26T01:04:14.605Z,101202.96
2022-10-26T01:06:44.774Z,101201.91
2022-10-26T01:09:13.795Z,101203.08
2022-10-26T01:11:42.136Z,101205.20
2022-10-26T01:14:13.363Z,101205.58
2022-10-26T01:20:08.087Z,101206.23
2022-10-26T01:22:42.009Z,101207.34
2022-10-26T01:25:25.525Z,101205.16
2022-10-26T01:27:54.198Z,101201.37
2022-10-26T01:30:31.077Z,101196.41
2022-10-26T01:33:22.977Z,101197.80
2022-10-26T01:36:01.741Z,101202.66
2022-10-26T01:38:38.502Z,101205.63
2022-10-26T01:41:11.906Z,101207.83
2022-10-26T01:43:43.457Z,101207.95
2022-10-26T01:46:12.922Z,101206.36
2022-10-26T01:48:43.897Z,101205.97
2022-10-26T01:51:13.949Z,101205.87
2022-10-26T01:53:47.015Z,101200.65
2022-10-26T01:56:20.991Z,101203.84
2022-10-26T01:59:27.056Z,101203.41
2022-10-26T02:02:26.295Z,101206.72
2022-10-26T02:05:16.018Z,101206.61
2022-10-26T02:07:55.370Z,101207.11
2022-10-26T02:10:34.590Z,101201.17
2022-10-26T02:13:10.365Z,101199.91
2022-10-26T02:15:47.922Z,101203.58
2022-10-26T02:18:24.509Z,101210.64
2022-10-26T02:20:59.846Z,101218.23
2022-10-26T02:23:31.743Z,101220.91
2022-10-26T02:26:03.216Z,101221.30
2022-10-26T02:28:36.510Z,101223.82
2022-10-26T02:31:09.093Z,101227.50
2022-10-26T02:33:41.238Z,101220.88
2022-10-26T02:36:12.277Z,101224.91
2022-10-26T02:38:45.267Z,101223.73
2022-10-26T02:41:15.557Z,101224.69
2022-10-26T02:43:51.000Z,101224.02
2022-10-26T02:46:23.010Z,101230.45
2022-10-26T02:48:51.443Z,101235.02
2022-10-26T02:51:26.784Z,101233.38
2022-10-26T02:54:01.405Z,101240.41
2022-10-26T02:56:35.696Z,101248.45
2022-10-26T02:59:07.768Z,101247.11
2022-10-26T03:01:37.057Z,101251.89
2022-10-26T03:04:06.117Z,101254.56
2022-10-26T03:06:34.603Z,101256.36
2022-10-26T03:09:03.249Z,101256.70
2022-10-26T03:11:31.759Z,101259.79
2022-10-26T03:14:00.317Z,101259.37
2022-10-26T03:16:28.803Z,101254.97
2022-10-26T03:18:57.342Z,101252.90
2022-10-26T03:21:28.129Z,101252.95
2022-10-26T03:23:56.674Z,101249.12
2022-10-26T03:26:25.226Z,101254.55
2022-10-26T03:28:53.580Z,101256.48
2022-10-26T03:31:24.766Z,101257.13
2022-10-26T03:33:53.498Z,101260.83
2022-10-26T03:36:21.916Z,101265.73
2022-10-26T03:38:50.339Z,101264.06
2022-10-26T03:41:18.635Z,101259.73
2022-10-26T03:43:47.821Z,101261.37
2022-10-26T03:46:16.201Z,101263.98
2022-10-26T03:48:46.471Z,101261.71
2022-10-26T03:51:14.831Z,101267.05
2022-10-26T03:53:43.181Z,101267.54
2022-10-26T03:56:11.641Z,101270.95
2022-10-26T03:58:40.151Z,101273.90
2022-10-26T04:01:08.833Z,101275.88
2022-10-26T04:03:37.315Z,101271.39
2022-10-26T04:06:06.642Z,101263.52
2022-10-26T04:08:35.395Z,101258.98
2022-10-26T04:11:04.848Z,101263.00
2022-10-26T04:13:33.989Z,101262.80
2022-10-26T04:16:02.415Z,101269.31
2022-10-26T04:18:30.730Z,101270.29
2022-10-26T04:21:02.136Z,101270.88
2022-10-26T04:23:30.986Z,101273.64
2022-10-26T04:25:59.303Z,101274.23
2022-10-26T04:28:27.712Z,101276.95
2022-10-26T04:30:56.108Z,101276.69
2022-10-26T04:33:24.543Z,101281.04
2022-10-26T04:35:52.953Z,101281.48
2022-10-26T04:38:21.252Z,101288.55
2022-10-26T04:40:52.373Z,101292.55
2022-10-26T04:43:20.814Z,101289.19
2022-10-26T04:45:49.290Z,101282.94
2022-10-26T04:48:17.868Z,101284.64
2022-10-26T04:50:46.964Z,101286.27
2022-10-26T04:53:15.330Z,101289.15
2022-10-26T04:55:43.672Z,101294.66
2022-10-26T04:58:12.370Z,101291.48
2022-10-26T05:00:40.755Z,101294.31
2022-10-26T05:03:09.994Z,101295.75
2022-10-26T05:05:38.378Z,101300.13
2022-10-26T05:08:07.077Z,101295.06
2022-10-26T05:10:35.634Z,101301.36
2022-10-26T05:13:04.103Z,101303.55
2022-10-26T05:15:32.579Z,101304.27
2022-10-26T05:18:02.797Z,101306.52
2022-10-26T05:20:37.174Z,101308.37
2022-10-26T05:23:07.369Z,101309.58
2022-10-26T05:25:36.970Z,101312.84
2022-10-26T05:28:08.915Z,101314.75
2022-10-26T05:30:37.238Z,101315.98
2022-10-26T05:33:06.977Z,101315.55
2022-10-26T05:35:35.970Z,101314.65
2022-10-26T05:38:08.664Z,101317.92
2022-10-26T05:40:37.264Z,101322.08
2022-10-26T05:43:23.863Z,101323.66
2022-10-26T05:45:54.116Z,101319.16
2022-10-26T05:48:22.831Z,101328.57
2022-10-26T05:50:51.463Z,101329.95
2022-10-26T05:53:19.930Z,101330.93
2022-10-26T05:55:49.352Z,101334.95
2022-10-26T05:58:18.836Z,101336.81
2022-10-26T06:01:07.222Z,101339.90
2022-10-26T06:03:52.157Z,101337.60
2022-10-26T06:06:22.583Z,101335.90
2022-10-26T06:08:52.051Z,101335.86
2022-10-26T06:11:21.541Z,101338.80
2022-10-26T06:13:54.055Z,101339.50
2022-10-26T06:16:33.706Z,101339.73
2022-10-26T06:19:14.585Z,101346.02
2022-10-26T06:21:56.571Z,101348.55
2022-10-26T06:24:36.022Z,101353.10
2022-10-26T06:27:19.439Z,101357.38
2022-10-26T06:29:57.160Z,101360.73
2022-10-26T06:32:25.832Z,101364.97
2022-10-26T06:35:07.229Z,101367.42
2022-10-26T06:37:37.194Z,101372.90
2022-10-26T06:40:08.515Z,101378.45
2022-10-26T06:42:37.904Z,101378.64
2022-10-26T06:45:12.332Z,101373.63
2022-10-26T06:47:52.114Z,101375.98
2022-10-26T06:50:35.956Z,101378.41
2022-10-26T06:53:14.377Z,101376.52
2022-10-26T06:55:46.334Z,101378.87
2022-10-26T06:58:17.729Z,101381.40
2022-10-26T07:00:48.272Z,101380.56
2022-10-26T07:03:16.834Z,101383.33
2022-10-26T07:05:45.830Z,101384.78
2022-10-26T07:08:14.260Z,101388.80
2022-10-26T07:10:43.048Z,101393.35
2022-10-26T07:13:11.709Z,101396.27
2022-10-26T07:15:42.281Z,101395.54
2022-10-26T07:18:10.722Z,101396.35
2022-10-26T07:20:41.530Z,101400.03
2022-10-26T07:23:10.819Z,101398.47
2022-10-26T07:25:39.885Z,101398.85
2022-10-26T07:28:10.378Z,101404.03
2022-10-26T07:30:40.938Z,101406.30
2022-10-26T07:33:11.098Z,101411.58
2022-10-26T07:35:39.947Z,101413.80
2022-10-26T07:38:08.736Z,101412.55
2022-10-26T07:40:37.810Z,101410.89
2022-10-26T07:43:06.414Z,101411.77
2022-10-26T07:45:36.198Z,101421.12
2022-10-26T07:48:05.061Z,101421.42
2022-10-26T07:50:33.510Z,101427.23
2022-10-26T07:53:01.925Z,101423.19
2022-10-26T07:55:30.250Z,101423.47
2022-10-26T07:57:58.811Z,101429.47
2022-10-26T08:00:28.138Z,101430.39
2022-10-26T08:02:56.681Z,101435.60
2022-10-26T08:05:26.758Z,101438.36
2022-10-26T08:07:55.321Z,101439.54
2022-10-26T08:10:23.826Z,101438.69
2022-10-26T08:12:53.874Z,101438.85
2022-10-26T08:15:22.641Z,101442.92
2022-10-26T08:17:51.574Z,101447.43
2022-10-26T08:20:20.817Z,101449.21
2022-10-26T08:22:49.491Z,101446.26
2022-10-26T08:25:21.256Z,101447.92
2022-10-26T08:27:50.105Z,101449.60
2022-10-26T08:30:18.801Z,101451.84
2022-10-26T08:32:48.156Z,101455.05
2022-10-26T08:35:17.377Z,101451.71
2022-10-26T08:37:45.721Z,101450.30
2022-10-26T08:40:16.740Z,101452.91
2022-10-26T08:42:50.231Z,101457.91
2022-10-26T08:45:31.715Z,101456.91
2022-10-26T08:48:05.741Z,101456.77
2022-10-26T08:50:40.658Z,101458.85
2022-10-26T08:53:19.978Z,101459.40
2022-10-26T08:55:52.648Z,101460.23
2022-10-26T08:58:27.183Z,101463.48
2022-10-26T09:00:55.678Z,101458.66
2022-10-26T09:03:25.270Z,101460.14
2022-10-26T09:06:08.760Z,101458.69
2022-10-26T09:08:48.273Z,101461.82
2022-10-26T09:11:27.873Z,101458.95
2022-10-26T09:14:10.833Z,101462.27
2022-10-26T09:16:50.914Z,101466.61
2022-10-26T09:19:46.972Z,101461.25
2022-10-26T09:22:21.885Z,101461.22
2022-10-26T09:24:54.680Z,101461.90
2022-10-26T09:27:27.100Z,101460.52
2022-10-26T09:29:56.566Z,101466.34
2022-10-26T09:32:30.541Z,101472.27
2022-10-26T09:35:02.661Z,101472.48
2022-10-26T09:37:37.672Z,101473.45
2022-10-26T09:40:13.101Z,101471.55
2022-10-26T09:42:46.736Z,101476.48
2022-10-26T09:45:20.361Z,101474.77
2022-10-26T09:47:52.429Z,101479.52
2022-10-26T09:50:27.054Z,101483.59
2022-10-26T09:52:55.433Z,101485.94
2022-10-26T09:55:23.808Z,101491.33
2022-10-26T09:57:55.465Z,101490.44
2022-10-26T10:00:25.773Z,101496.52
2022-10-26T10:02:55.491Z,101498.90
2022-10-26T10:08:21.889Z,101501.87
2022-10-26T10:10:59.974Z,101501.14
2022-10-26T10:13:31.215Z,101503.60
2022-10-26T10:16:11.888Z,101502.98
2022-10-26T10:18:41.949Z,101502.06
2022-10-26T10:21:11.494Z,101501.36
2022-10-26T10:23:51.388Z,101500.41
2022-10-26T10:26:20.505Z,101499.80
2022-10-26T10:28:58.118Z,101502.48
2022-10-26T10:31:31.181Z,101505.08
2022-10-26T10:34:00.239Z,101499.52
2022-10-26T10:36:29.937Z,101494.72
2022-10-26T10:38:59.442Z,101494.35
2022-10-26T10:41:30.963Z,101495.71
2022-10-26T10:44:08.297Z,101495.74
2022-10-26T10:46:37.535Z,101495.39
2022-10-26T10:49:18.408Z,101495.44
2022-10-26T10:51:48.066Z,101497.64
2022-10-26T10:54:25.364Z,101498.24
2022-10-26T10:56:57.670Z,101499.02
2022-10-26T10:59:44.686Z,101499.50
2022-10-26T11:02:42.859Z,101501.40
2022-10-26T11:05:26.240Z,101498.86
2022-10-26T11:08:06.739Z,101496.41
2022-10-26T11:10:40.568Z,101497.31
2022-10-26T11:13:18.024Z,101500.84
2022-10-26T11:15:50.391Z,101500.17
2022-10-26T11:18:27.142Z,101504.09
2022-10-26T11:21:01.486Z,101501.14
2022-10-26T11:23:37.747Z,101502.19
2022-10-26T11:26:12.425Z,101501.86
2022-10-26T11:28:49.329Z,101502.06
2022-10-26T11:31:23.125Z,101506.05
2022-10-26T11:34:07.935Z,101503.08
2022-10-26T11:36:39.293Z,101505.79
2022-10-26T11:39:16.240Z,101508.38
2022-10-26T11:41:50.887Z,101508.91
2022-10-26T11:44:28.145Z,101508.52
2022-10-26T11:47:00.942Z,101511.82
2022-10-26T11:49:36.131Z,101517.36
2022-10-26T11:52:14.047Z,101517.80
2022-10-26T11:54:48.233Z,101517.65
2022-10-26T11:57:17.484Z,101518.77
2022-10-26T11:59:50.289Z,101517.23
2022-10-26T12:02:21.514Z,101516.29
2022-10-26T12:04:56.192Z,101517.54
2022-10-26T12:07:29.687Z,101517.60
2022-10-26T12:09:59.001Z,101516.95
2022-10-26T12:12:37.463Z,101519.21
2022-10-26T12:15:30.909Z,101521.16
2022-10-26T12:18:26.799Z,101520.89
2022-10-26T12:21:04.907Z,101520.31
2022-10-26T12:23:40.841Z,101518.71
2022-10-26T12:26:52.691Z,101521.16
2022-10-26T12:29:44.365Z,101520.10
2022-10-26T12:32:51.342Z,101519.27
2022-10-26T12:35:38.539Z,101516.93
2022-10-26T12:38:42.655Z,101516.69
2022-10-26T12:41:21.919Z,101519.16
2022-10-26T12:43:54.618Z,101517.69
2022-10-26T12:46:40.825Z,101514.77
2022-10-26T12:49:57.972Z,101511.44
2022-10-26T12:52:33.842Z,101517.00
2022-10-26T12:55:28.441Z,101517.48
2022-10-26T12:58:10.338Z,101516.23
2022-10-26T13:00:46.817Z,101514.68
2022-10-26T13:03:29.924Z,101514.98
2022-10-26T13:06:20.132Z,101514.15
2022-10-26T13:08:55.141Z,101513.57
2022-10-26T13:11:32.212Z,101512.58
2022-10-26T13:14:04.460Z,101513.70
2022-10-26T13:16:33.776Z,101517.44
2022-10-26T13:19:02.421Z,101516.77
2022-10-26T13:21:30.987Z,101518.64
2022-10-26T13:24:07.225Z,101517.61
2022-10-26T13:27:13.718Z,101522.19
2022-10-26T13:30:10.718Z,101524.71
2022-10-26T13:32:42.190Z,101523.77
2022-10-26T13:35:16.194Z,101528.47
2022-10-26T13:37:47.617Z,101525.59
2022-10-26T13:40:19.141Z,101525.94
2022-10-26T13:42:50.235Z,101527.41
2022-10-26T13:45:23.082Z,101528.61
2022-10-26T13:47:58.627Z,101525.48
2022-10-26T13:50:40.467Z,101526.89
2022-10-26T13:53:19.867Z,101532.97
2022-10-26T13:55:52.672Z,101532.36
2022-10-26T13:58:30.948Z,101540.46
2022-10-26T14:01:04.859Z,101543.79
2022-10-26T14:03:33.339Z,101538.23
2022-10-26T14:06:05.323Z,101538.95
2022-10-26T14:08:35.001Z,101536.55
2022-10-26T14:11:03.617Z,101532.08
2022-10-26T14:13:37.087Z,101528.39
2022-10-26T14:16:12.864Z,101522.75
2022-10-26T14:18:44.687Z,101519.56
2022-10-26T14:21:16.382Z,101523.84
2022-10-26T14:23:49.518Z,101518.53
2022-10-26T14:26:23.630Z,101521.32
2022-10-26T14:28:55.173Z,101520.98
2022-10-26T14:31:28.944Z,101521.54
2022-10-26T14:33:59.824Z,101521.48
2022-10-26T14:36:31.800Z,101523.85
2022-10-26T14:39:04.788Z,101527.21
2022-10-26T14:41:35.824Z,101530.34
2022-10-26T14:44:15.695Z,101537.42
2022-10-26T14:46:44.471Z,101533.61
2022-10-26T14:49:20.068Z,101534.32
2022-10-26T14:51:50.271Z,101536.45
2022-10-26T14:54:22.582Z,101536.96
2022-10-26T14:56:51.564Z,101541.37
2022-10-26T14:59:24.801Z,101543.60
2022-10-26T15:01:55.780Z,101544.11
2022-10-26T15:04:33.979Z,101541.83
2022-10-26T15:07:17.538Z,101546.56
2022-10-26T15:09:47.314Z,101546.58
2022-10-26T15:12:22.483Z,101543.79
2022-10-26T15:14:52.173Z,101545.17
2022-10-26T15:17:26.949Z,101543.91
2022-10-26T15:19:55.802Z,101548.69
2022-10-26T15:22:32.066Z,101544.48
2022-10-26T15:25:03.928Z,101544.19
2022-10-26T15:27:32.550Z,101540.88
2022-10-26T15:30:17.842Z,101542.83
2022-10-26T15:32:46.340Z,101543.89
2022-10-26T15:35:22.705Z,101544.14
2022-10-26T15:37:53.126Z,101540.14
2022-10-26T15:40:22.445Z,101543.23
2022-10-26T15:42:53.029Z,101548.52
2022-10-26T15:45:23.640Z,101549.60
2022-10-26T15:51:25.393Z,101546.21
2022-10-26T15:54:17.676Z,101549.65
2022-10-26T15:57:04.400Z,101554.69
2022-10-26T15:59:33.058Z,101560.48
2022-10-26T16:02:01.747Z,101562.42
2022-10-26T16:04:52.307Z,101559.14
2022-10-26T16:07:45.461Z,101557.62
2022-10-26T16:10:40.155Z,101558.86
2022-10-26T16:13:16.020Z,101563.63
2022-10-26T16:16:38.757Z,101561.87
2022-10-26T16:21:58.058Z,101570.11
2022-10-26T16:24:27.509Z,101564.84
2022-10-26T16:26:56.703Z,101566.74
2022-10-26T16:29:25.144Z,101572.27
2022-10-26T16:31:53.507Z,101571.32
2022-10-26T16:34:21.940Z,101575.34
2022-10-26T16:36:50.310Z,101574.35
2022-10-26T16:39:18.770Z,101575.14
2022-10-26T16:41:52.548Z,101576.07
2022-10-26T16:44:20.927Z,101581.28
2022-10-26T16:46:49.219Z,101583.15
2022-10-26T16:49:17.927Z,101585.88
2022-10-26T16:51:46.253Z,101586.02
2022-10-26T16:54:14.594Z,101591.27
2022-10-26T16:56:43.012Z,101593.41
2022-10-26T16:59:11.607Z,101599.17
2022-10-26T17:01:40.154Z,101596.91
2022-10-26T17:04:10.303Z,101599.29
2022-10-26T17:06:38.726Z,101599.42
2022-10-26T17:09:09.167Z,101602.33
2022-10-26T17:11:39.414Z,101606.25
2022-10-26T17:14:08.348Z,101608.25
2022-10-26T17:16:36.977Z,101610.77
2022-10-26T17:19:05.710Z,101613.46
2022-10-26T17:21:35.652Z,101617.14
2022-10-26T17:24:06.113Z,101617.14
2022-10-26T17:26:34.518Z,101619.61
2022-10-26T17:29:03.515Z,101621.34
2022-10-26T17:31:34.590Z,101622.42
2022-10-26T17:34:06.862Z,101621.94
2022-10-26T17:36:36.349Z,101630.21
2022-10-26T17:39:06.611Z,101636.66
2022-10-26T17:41:36.403Z,101639.14
2022-10-26T17:44:07.698Z,101638.20
2022-10-26T17:46:36.297Z,101650.19
2022-10-26T17:49:05.426Z,101651.35
2022-10-26T17:51:33.949Z,101652.88
2022-10-26T17:54:06.248Z,101650.55
2022-10-26T17:56:41.031Z,101650.91
2022-10-26T17:59:14.797Z,101655.66
2022-10-26T18:01:48.217Z,101659.40
2022-10-26T18:04:19.389Z,101660.65
2022-10-26T18:06:48.080Z,101660.22
2022-10-26T18:09:18.786Z,101661.80
2022-10-26T18:11:49.586Z,101659.83
2022-10-26T18:14:21.298Z,101660.65
2022-10-26T18:16:50.243Z,101662.30
2022-10-26T18:19:19.578Z,101662.38
2022-10-26T18:21:48.071Z,101664.17
2022-10-26T18:24:16.543Z,101668.40
2022-10-26T18:26:44.948Z,101666.91
2022-10-26T18:29:13.763Z,101669.80
2022-10-26T18:31:44.762Z,101671.70
2022-10-26T18:34:13.636Z,101666.88
2022-10-26T18:36:42.101Z,101662.52
2022-10-26T18:39:11.854Z,101667.11
2022-10-26T18:41:40.537Z,101668.80
2022-10-26T18:44:09.646Z,101670.98
2022-10-26T18:46:40.079Z,101677.17
2022-10-26T18:49:09.738Z,101681.48
2022-10-26T18:51:38.447Z,101683.86
2022-10-26T18:54:07.071Z,101682.58
2022-10-26T18:56:35.695Z,101685.77
2022-10-26T18:59:05.216Z,101685.41
2022-10-26T19:01:35.964Z,101687.88
2022-10-26T19:04:07.085Z,101689.71
2022-10-26T19:06:38.034Z,101684.52
2022-10-26T19:09:08.517Z,101686.27
2022-10-26T19:11:40.333Z,101689.77
2022-10-26T19:14:09.368Z,101691.80
2022-10-26T19:16:47.522Z,101695.34
2022-10-26T19:19:19.862Z,101697.89
2022-10-26T19:21:49.574Z,101698.35
2022-10-26T19:24:20.373Z,101708.20
2022-10-26T19:26:53.419Z,101711.17
2022-10-26T19:29:24.629Z,101712.42
2022-10-26T19:31:53.079Z,101715.63
2022-10-26T19:34:24.247Z,101716.85
2022-10-26T19:36:52.712Z,101722.17
2022-10-26T19:39:22.133Z,101725.75
2022-10-26T19:41:50.776Z,101728.54
2022-10-26T19:44:23.116Z,101734.28
2022-10-26T19:46:53.709Z,101735.75
2022-10-26T19:49:25.595Z,101734.73
2022-10-26T19:51:57.358Z,101739.35
2022-10-26T19:54:33.045Z,101740.36
2022-10-26T19:57:01.490Z,101739.53
2022-10-26T19:59:29.893Z,101743.94
2022-10-26T20:01:59.797Z,101743.03
2022-10-26T20:04:28.239Z,101743.80
2022-10-26T20:06:56.811Z,101745.02
2022-10-26T20:09:25.500Z,101746.54
2022-10-26T20:11:53.858Z,101751.45
2022-10-26T20:14:22.212Z,101748.16
2022-10-26T20:16:50.524Z,101756.99
2022-10-26T20:19:18.935Z,101760.93
2022-10-26T20:21:48.843Z,101761.36
2022-10-26T20:24:17.320Z,101762.05
2022-10-26T20:26:45.663Z,101770.89
2022-10-26T20:29:14.433Z,101769.65
2022-10-26T20:31:42.864Z,101766.81
2022-10-26T20:34:11.275Z,101763.03
2022-10-26T20:36:39.674Z,101760.84
2022-10-26T20:39:09.321Z,101758.83
2022-10-26T20:41:43.262Z,101754.66
2022-10-26T20:44:19.929Z,101751.81
2022-10-26T20:46:49.509Z,101748.96
2022-10-26T20:49:19.154Z,101751.72
2022-10-26T20:52:19.442Z,101753.06
2022-10-26T20:54:48.248Z,101754.51
2022-10-26T20:57:20.467Z,101756.27
2022-10-26T20:59:51.717Z,101759.93
2022-10-26T21:02:21.855Z,101764.73
2022-10-26T21:04:50.219Z,101758.25
2022-10-26T21:07:18.657Z,101755.36
2022-10-26T21:09:47.089Z,101752.73
2022-10-26T21:12:15.554Z,101753.50
2022-10-26T21:14:44.217Z,101751.55
2022-10-26T21:17:12.728Z,101752.27
2022-10-26T21:19:41.201Z,101750.87
2022-10-26T21:22:09.560Z,101751.77
2022-10-26T21:24:37.948Z,101751.28
2022-10-26T21:27:06.308Z,101751.05
2022-10-26T21:29:37.558Z,101749.93
2022-10-26T21:32:06.569Z,101752.98
2022-10-26T21:34:34.943Z,101756.27
2022-10-26T21:37:03.334Z,101754.10
2022-10-26T21:39:31.661Z,101761.79
2022-10-26T21:42:00.179Z,101755.22
2022-10-26T21:44:43.798Z,101761.80
2022-10-26T21:47:12.340Z,101769.21
2022-10-26T21:52:10.111Z,101772.36
2022-10-26T21:54:38.704Z,101766.54
2022-10-26T21:57:07.058Z,101769.55
2022-10-26T21:59:35.425Z,101768.06
2022-10-26T22:02:04.453Z,101774.15
2022-10-26T22:04:33.683Z,101770.98
2022-10-26T22:07:02.566Z,101768.56
2022-10-26T22:09:32.825Z,101770.36
2022-10-26T22:12:04.808Z,101767.08
2022-10-26T22:14:33.703Z,101766.95
2022-10-26T22:17:02.633Z,101764.44
2022-10-26T22:19:31.819Z,101760.98
2022-10-26T22:22:00.775Z,101756.35
2022-10-26T22:24:29.801Z,101759.20
2022-10-26T22:26:58.681Z,101761.33
2022-10-26T22:29:27.854Z,101769.55
2022-10-26T22:31:56.833Z,101769.59
2022-10-26T22:34:25.817Z,101772.77
2022-10-26T22:36:54.698Z,101770.10
2022-10-26T22:39:24.674Z,101773.81
2022-10-26T22:41:53.614Z,101778.72
2022-10-26T22:44:22.540Z,101773.78
2022-10-26T22:46:51.748Z,101780.30
2022-10-26T22:49:20.698Z,101776.86
2022-10-26T22:51:49.624Z,101774.84
2022-10-26T22:54:19.258Z,101778.91
2022-10-26T22:56:48.223Z,101775.23
2022-10-26T22:59:17.266Z,101777.67
2022-10-26T23:01:46.317Z,101779.61
2022-10-26T23:04:15.483Z,101780.95
2022-10-26T23:06:44.418Z,101777.44
2022-10-26T23:09:13.312Z,101774.09
2022-10-26T23:11:42.223Z,101777.01
2022-10-26T23:14:11.485Z,101780.47
2022-10-26T23:16:40.305Z,101778.91
2022-10-26T23:19:09.930Z,101771.64
2022-10-26T23:21:38.885Z,101772.58
2022-10-26T23:24:08.468Z,101772.08
2022-10-26T23:26:37.526Z,101773.19
2022-10-26T23:29:08.803Z,101779.73
2022-10-26T23:31:38.000Z,101776.14
2022-10-26T23:34:06.885Z,101777.86
2022-10-26T23:36:35.831Z,101779.94
2022-10-26T23:39:04.989Z,101779.00
2022-10-26T23:41:34.149Z,101777.71
2022-10-26T23:44:03.323Z,101781.14
2022-10-26T23:46:32.316Z,101780.74
2022-10-26T23:49:01.623Z,101780.04
2022-10-26T23:51:30.708Z,101780.48
2022-10-26T23:53:59.595Z,101778.52
2022-10-26T23:56:28.894Z,101776.44
2022-10-26T23:59:00.550Z,101786.61
